createdAt,value
2019-03-21T00:01:53.260Z,3.30
2019-03-21T00:04:23.561Z,3.30
2019-03-21T00:06:53.803Z,3.10
2019-03-21T00:09:24.556Z,3.10
2019-03-21T00:12:10.154Z,3.00
2019-03-21T00:14:53.729Z,3.00
2019-03-21T00:17:40.168Z,3.00
2019-03-21T00:20:13.436Z,3.10
2019-03-21T00:22:43.591Z,3.10
2019-03-21T00:25:16.890Z,3.10
2019-03-21T00:27:47.069Z,3.10
2019-03-21T00:30:19.795Z,3.10
2019-03-21T00:32:50.129Z,3.00
2019-03-21T00:35:20.321Z,3.10
2019-03-21T00:37:50.648Z,3.00
2019-03-21T00:40:26.140Z,2.90
2019-03-21T00:42:57.190Z,2.90
2019-03-21T00:45:27.421Z,2.90
2019-03-21T00:47:57.543Z,2.90
2019-03-21T00:50:29.766Z,2.80
2019-03-21T00:52:59.944Z,2.90
2019-03-21T00:55:36.174Z,2.90
2019-03-21T00:58:06.417Z,2.80
2019-03-21T01:00:39.914Z,2.70
2019-03-21T01:03:11.503Z,2.70
2019-03-21T01:05:42.439Z,2.70
2019-03-21T01:08:12.795Z,2.70
2019-03-21T01:10:42.971Z,2.70
2019-03-21T01:13:13.266Z,2.70
2019-03-21T01:15:43.651Z,2.60
2019-03-21T01:18:13.822Z,2.60
2019-03-21T01:20:44.000Z,2.60
2019-03-21T01:23:14.224Z,2.50
2019-03-21T01:25:48.163Z,2.60
2019-03-21T01:28:18.431Z,2.60
2019-03-21T01:30:48.649Z,2.60
2019-03-21T01:33:18.816Z,2.60
2019-03-21T01:35:49.106Z,2.60
2019-03-21T01:38:19.470Z,2.70
2019-03-21T01:41:00.755Z,2.70
2019-03-21T01:43:30.878Z,2.60
2019-03-21T01:46:01.567Z,2.60
2019-03-21T01:48:31.827Z,2.60
2019-03-21T01:51:02.207Z,2.60
2019-03-21T01:53:33.877Z,2.60
2019-03-21T01:56:04.444Z,2.50
2019-03-21T01:58:34.938Z,2.50
2019-03-21T02:01:05.163Z,2.60
2019-03-21T02:03:35.356Z,2.70
2019-03-21T02:06:05.727Z,2.70
2019-03-21T02:08:35.882Z,2.70
2019-03-21T02:11:06.066Z,2.70
2019-03-21T02:13:36.340Z,2.60
2019-03-21T02:16:07.747Z,2.50
2019-03-21T02:18:38.033Z,2.50
2019-03-21T02:21:08.226Z,2.40
2019-03-21T02:23:38.394Z,2.40
2019-03-21T02:26:08.613Z,2.30
2019-03-21T02:28:39.015Z,2.30
2019-03-21T02:31:12.319Z,2.30
2019-03-21T02:33:44.936Z,2.30
2019-03-21T02:36:15.138Z,2.40
2019-03-21T02:38:45.432Z,2.40
2019-03-21T02:41:16.992Z,2.30
2019-03-21T02:43:47.248Z,2.30
2019-03-21T02:46:17.453Z,2.20
2019-03-21T02:48:47.828Z,2.20
2019-03-21T02:51:18.193Z,2.10
2019-03-21T02:53:48.423Z,2.00
2019-03-21T02:56:21.937Z,2.00
2019-03-21T02:58:52.122Z,2.00
2019-03-21T03:01:22.391Z,1.90
2019-03-21T03:03:52.687Z,1.80
2019-03-21T03:06:23.292Z,1.80
2019-03-21T03:08:53.493Z,1.80
2019-03-21T03:11:24.893Z,1.80
2019-03-21T03:13:55.711Z,1.90
2019-03-21T03:16:25.929Z,1.80
2019-03-21T03:18:56.527Z,1.80
2019-03-21T03:21:26.829Z,1.80
2019-03-21T03:23:57.026Z,1.70
2019-03-21T03:26:27.189Z,1.60
2019-03-21T03:28:57.489Z,1.60
2019-03-21T03:31:27.832Z,1.60
2019-03-21T03:33:58.128Z,1.60
2019-03-21T03:36:28.296Z,1.60
2019-03-21T03:38:58.503Z,1.50
2019-03-21T03:41:29.051Z,1.60
2019-03-21T03:43:59.577Z,1.60
2019-03-21T03:46:29.982Z,1.60
2019-03-21T03:49:00.260Z,1.60
2019-03-21T03:51:30.434Z,1.60
2019-03-21T03:54:00.703Z,1.60
2019-03-21T03:56:30.956Z,1.60
2019-03-21T03:59:07.859Z,1.50
2019-03-21T04:01:38.538Z,1.50
2019-03-21T04:04:08.980Z,1.60
2019-03-21T04:06:39.603Z,1.50
2019-03-21T04:09:10.216Z,1.50
2019-03-21T04:11:40.596Z,1.50
2019-03-21T04:14:10.786Z,1.60
2019-03-21T04:16:40.970Z,1.60
2019-03-21T04:19:11.396Z,1.60
2019-03-21T04:21:41.659Z,1.50
2019-03-21T04:24:11.955Z,1.50
2019-03-21T04:26:42.564Z,1.50
2019-03-21T04:29:13.156Z,1.50
2019-03-21T04:31:43.358Z,1.50
2019-03-21T04:34:13.625Z,1.50
2019-03-21T04:36:43.808Z,1.50
2019-03-21T04:39:14.134Z,1.40
2019-03-21T04:41:45.434Z,1.50
2019-03-21T04:44:15.620Z,1.50
2019-03-21T04:46:45.987Z,1.50
2019-03-21T04:49:16.180Z,1.40
2019-03-21T04:51:46.331Z,1.40
2019-03-21T04:54:16.729Z,1.40
2019-03-21T04:56:46.872Z,1.50
2019-03-21T04:59:17.259Z,1.50
2019-03-21T05:01:47.512Z,1.50
2019-03-21T05:04:17.874Z,1.50
2019-03-21T05:06:48.319Z,1.50
2019-03-21T05:09:18.708Z,1.50
2019-03-21T05:11:48.928Z,1.50
2019-03-21T05:14:19.420Z,1.60
2019-03-21T05:16:49.681Z,1.60
2019-03-21T05:19:19.978Z,1.60
2019-03-21T05:21:50.342Z,1.70
2019-03-21T05:24:20.515Z,1.70
2019-03-21T05:26:50.681Z,1.80
2019-03-21T05:29:20.955Z,1.80
2019-03-21T05:31:51.320Z,1.90
2019-03-21T05:34:21.970Z,1.90
2019-03-21T05:36:52.681Z,2.00
2019-03-21T05:39:22.975Z,1.90
2019-03-21T05:41:53.333Z,1.70
2019-03-21T05:44:38.294Z,1.50
2019-03-21T05:47:08.547Z,1.50
2019-03-21T05:49:38.737Z,1.50
2019-03-21T05:52:08.907Z,1.50
2019-03-21T05:54:39.090Z,1.40
2019-03-21T05:57:10.744Z,1.30
2019-03-21T05:59:41.134Z,1.40
2019-03-21T06:02:11.298Z,1.60
2019-03-21T06:04:41.791Z,1.70
2019-03-21T06:07:21.075Z,1.80
2019-03-21T06:09:51.264Z,1.70
2019-03-21T06:12:21.517Z,1.80
2019-03-21T06:14:55.077Z,1.80
2019-03-21T06:17:25.512Z,1.80
2019-03-21T06:20:03.919Z,1.90
2019-03-21T06:22:49.578Z,2.10
2019-03-21T06:25:25.587Z,2.30
2019-03-21T06:27:55.855Z,2.50
2019-03-21T06:30:26.657Z,2.80
2019-03-21T06:32:56.808Z,3.00
2019-03-21T06:35:28.498Z,3.00
2019-03-21T06:37:58.649Z,3.20
2019-03-21T06:40:28.924Z,3.40
2019-03-21T06:42:59.196Z,3.50
2019-03-21T06:45:29.473Z,3.60
2019-03-21T06:47:59.753Z,3.60
2019-03-21T06:50:30.238Z,3.60
2019-03-21T06:53:03.119Z,3.70
2019-03-21T06:55:32.530Z,3.80
2019-03-21T06:58:04.496Z,3.80
2019-03-21T07:00:34.909Z,3.90
2019-03-21T07:03:05.168Z,4.00
2019-03-21T07:05:35.350Z,4.00
2019-03-21T07:08:05.503Z,4.20
2019-03-21T07:10:35.788Z,4.30
2019-03-21T07:13:05.932Z,4.40
2019-03-21T07:15:36.226Z,4.50
2019-03-21T07:18:06.495Z,4.50
2019-03-21T07:20:36.758Z,4.60
2019-03-21T07:23:06.925Z,4.60
2019-03-21T07:25:37.292Z,4.70
2019-03-21T07:28:07.774Z,4.80
2019-03-21T07:30:37.954Z,4.80
2019-03-21T07:33:08.322Z,4.80
2019-03-21T07:35:38.610Z,4.90
2019-03-21T07:38:08.760Z,4.90
2019-03-21T07:40:39.212Z,5.00
2019-03-21T07:43:09.368Z,5.20
2019-03-21T07:45:40.348Z,5.30
2019-03-21T07:48:10.600Z,5.40
2019-03-21T07:50:40.891Z,5.50
2019-03-21T07:53:11.044Z,5.50
2019-03-21T07:55:41.320Z,5.60
2019-03-21T07:58:12.146Z,5.80
2019-03-21T08:00:42.504Z,5.80
2019-03-21T08:03:12.678Z,6.00
2019-03-21T08:05:43.064Z,6.00
2019-03-21T08:08:15.148Z,6.20
2019-03-21T08:10:45.040Z,6.30
2019-03-21T08:13:15.179Z,6.30
2019-03-21T08:15:45.374Z,6.50
2019-03-21T08:18:15.546Z,6.50
2019-03-21T08:20:56.317Z,6.60
2019-03-21T08:23:17.531Z,6.70
2019-03-21T08:25:47.725Z,6.80
2019-03-21T08:28:18.089Z,7.00
2019-03-21T08:31:09.766Z,7.10
2019-03-21T08:33:39.931Z,7.10
2019-03-21T08:36:10.271Z,7.20
2019-03-21T08:38:40.674Z,7.30
2019-03-21T08:41:11.233Z,7.40
2019-03-21T08:43:41.468Z,7.50
2019-03-21T08:46:11.971Z,7.60
2019-03-21T08:48:42.301Z,7.70
2019-03-21T08:51:12.764Z,7.80
2019-03-21T08:53:42.942Z,7.90
2019-03-21T08:56:13.195Z,8.00
2019-03-21T08:58:43.386Z,8.00
2019-03-21T09:01:13.661Z,8.10
2019-03-21T09:03:44.053Z,8.20
2019-03-21T09:06:14.216Z,8.20
2019-03-21T09:08:44.874Z,8.40
2019-03-21T09:11:16.657Z,8.50
2019-03-21T09:13:46.841Z,8.60
2019-03-21T09:16:17.090Z,8.60
2019-03-21T09:18:47.286Z,8.70
2019-03-21T09:21:19.981Z,8.80
2019-03-21T09:23:49.340Z,8.90
2019-03-21T09:26:19.674Z,8.90
2019-03-21T09:28:49.846Z,9.00
2019-03-21T09:31:20.108Z,9.00
2019-03-21T09:33:50.408Z,9.10
2019-03-21T09:36:20.662Z,9.20
2019-03-21T09:38:50.960Z,9.20
2019-03-21T09:41:21.432Z,9.30
2019-03-21T09:43:52.178Z,9.40
2019-03-21T09:46:22.592Z,9.40
2019-03-21T09:48:53.086Z,9.40
2019-03-21T09:51:30.948Z,9.50
2019-03-21T09:53:55.586Z,9.50
2019-03-21T09:56:25.941Z,9.60
2019-03-21T09:58:56.239Z,9.60
2019-03-21T10:01:26.719Z,9.70
2019-03-21T10:03:56.910Z,9.80
2019-03-21T10:06:27.088Z,9.80
2019-03-21T10:08:57.536Z,9.80
2019-03-21T10:11:27.919Z,9.90
2019-03-21T10:13:58.800Z,9.90
2019-03-21T10:16:29.187Z,10.00
2019-03-21T10:18:59.472Z,10.00
2019-03-21T10:21:42.564Z,10.00
2019-03-21T10:24:02.984Z,10.00
2019-03-21T10:26:33.456Z,10.10
2019-03-21T10:29:03.643Z,10.20
2019-03-21T10:31:33.822Z,10.20
2019-03-21T10:34:04.190Z,10.20
2019-03-21T10:36:34.371Z,10.20
2019-03-21T10:39:06.706Z,10.30
2019-03-21T10:41:37.140Z,10.40
2019-03-21T10:44:07.343Z,10.40
2019-03-21T10:46:37.608Z,10.40
2019-03-21T10:49:07.811Z,10.50
2019-03-21T10:51:38.077Z,10.60
2019-03-21T10:54:08.282Z,10.60
2019-03-21T10:56:38.466Z,10.60
2019-03-21T10:59:08.662Z,10.60
2019-03-21T11:01:38.839Z,10.70
2019-03-21T11:04:09.446Z,10.70
2019-03-21T11:06:40.408Z,10.70
2019-03-21T11:09:10.604Z,10.70
2019-03-21T11:11:40.862Z,10.80
2019-03-21T11:14:11.578Z,10.80
2019-03-21T11:16:41.760Z,10.90
2019-03-21T11:19:12.028Z,10.90
2019-03-21T11:21:42.210Z,11.10
2019-03-21T11:24:12.661Z,11.00
2019-03-21T11:26:42.881Z,11.10
2019-03-21T11:29:13.068Z,11.20
2019-03-21T11:31:43.916Z,11.20
2019-03-21T11:34:14.222Z,11.20
2019-03-21T11:36:44.479Z,11.10
2019-03-21T11:39:14.882Z,11.20
2019-03-21T11:41:45.149Z,11.20
2019-03-21T11:44:15.562Z,11.30
2019-03-21T11:46:46.655Z,11.40
2019-03-21T11:49:16.937Z,11.40
2019-03-21T11:51:47.284Z,11.50
2019-03-21T11:54:17.533Z,11.50
2019-03-21T11:56:47.810Z,11.50
2019-03-21T11:59:18.508Z,11.60
2019-03-21T12:01:48.787Z,11.60
2019-03-21T12:04:19.009Z,11.70
2019-03-21T12:06:49.191Z,11.70
2019-03-21T12:09:19.395Z,11.70
2019-03-21T12:11:49.712Z,11.70
2019-03-21T12:14:19.870Z,11.80
2019-03-21T12:16:50.040Z,11.90
2019-03-21T12:19:20.356Z,11.90
2019-03-21T12:21:50.539Z,11.90
2019-03-21T12:24:20.731Z,11.90
2019-03-21T12:26:50.934Z,11.90
2019-03-21T12:29:21.096Z,11.90
2019-03-21T12:31:51.358Z,12.00
2019-03-21T12:34:21.527Z,12.10
2019-03-21T12:36:52.064Z,12.00
2019-03-21T12:39:22.515Z,12.10
2019-03-21T12:41:52.699Z,12.10
2019-03-21T12:44:23.453Z,12.10
2019-03-21T12:46:53.888Z,12.20
2019-03-21T12:49:24.510Z,12.20
2019-03-21T12:51:54.902Z,12.30
2019-03-21T12:54:25.168Z,12.30
2019-03-21T12:56:56.735Z,12.40
2019-03-21T12:59:27.705Z,12.50
2019-03-21T13:01:58.706Z,12.50
2019-03-21T13:04:29.117Z,12.60
2019-03-21T13:06:59.500Z,12.50
2019-03-21T13:09:30.397Z,12.60
2019-03-21T13:12:01.286Z,12.60
2019-03-21T13:14:33.214Z,12.60
2019-03-21T13:17:06.386Z,12.70
2019-03-21T13:19:36.794Z,12.70
2019-03-21T13:22:06.986Z,12.70
2019-03-21T13:24:37.308Z,12.70
2019-03-21T13:27:07.792Z,12.80
2019-03-21T13:29:37.970Z,12.80
2019-03-21T13:32:09.660Z,12.80
2019-03-21T13:34:39.848Z,12.80
2019-03-21T13:37:10.037Z,12.90
2019-03-21T13:39:40.314Z,12.90
2019-03-21T13:42:10.497Z,12.90
2019-03-21T13:44:41.006Z,13.00
2019-03-21T13:47:11.292Z,13.00
2019-03-21T13:49:41.667Z,13.00
2019-03-21T13:52:11.853Z,13.00
2019-03-21T13:54:42.034Z,13.00
2019-03-21T13:57:12.244Z,13.00
2019-03-21T13:59:42.623Z,13.00
2019-03-21T14:02:13.020Z,13.00
2019-03-21T14:04:43.503Z,13.00
2019-03-21T14:07:13.804Z,13.10
2019-03-21T14:09:44.090Z,13.10
2019-03-21T14:12:14.286Z,13.10
2019-03-21T14:14:44.556Z,13.20
2019-03-21T14:17:21.826Z,13.20
2019-03-21T14:19:46.772Z,13.20
2019-03-21T14:22:16.972Z,13.20
2019-03-21T14:24:47.256Z,13.20
2019-03-21T14:27:17.671Z,13.30
2019-03-21T14:29:48.248Z,13.30
2019-03-21T14:32:18.484Z,13.30
2019-03-21T14:34:48.665Z,13.20
2019-03-21T14:37:20.270Z,13.30
2019-03-21T14:39:51.751Z,13.30
2019-03-21T14:42:22.250Z,13.40
2019-03-21T14:44:52.523Z,13.30
2019-03-21T14:47:22.829Z,13.30
2019-03-21T14:49:53.274Z,13.40
2019-03-21T14:52:23.502Z,13.30
2019-03-21T14:54:53.678Z,13.30
2019-03-21T14:57:24.068Z,13.20
2019-03-21T14:59:54.248Z,13.30
2019-03-21T15:02:24.540Z,13.40
2019-03-21T15:04:54.805Z,13.40
2019-03-21T15:07:25.474Z,13.40
2019-03-21T15:09:55.754Z,13.40
2019-03-21T15:12:29.613Z,13.40
2019-03-21T15:15:00.868Z,13.30
2019-03-21T15:17:31.056Z,13.30
2019-03-21T15:20:01.325Z,13.20
2019-03-21T15:22:31.730Z,13.20
2019-03-21T15:25:02.108Z,13.20
2019-03-21T15:27:32.293Z,13.20
2019-03-21T15:30:03.129Z,13.20
2019-03-21T15:32:33.331Z,13.20
2019-03-21T15:35:05.446Z,13.20
2019-03-21T15:37:35.646Z,13.20
2019-03-21T15:40:08.363Z,13.20
2019-03-21T15:42:38.734Z,13.20
2019-03-21T15:45:23.361Z,13.10
2019-03-21T15:47:49.857Z,13.20
2019-03-21T15:50:30.798Z,13.20
2019-03-21T15:53:01.343Z,13.20
2019-03-21T15:55:31.678Z,13.10
2019-03-21T15:58:01.877Z,13.10
2019-03-21T16:00:44.644Z,13.10
2019-03-21T16:03:14.914Z,13.10
2019-03-21T16:05:45.098Z,13.10
2019-03-21T16:08:15.574Z,13.10
2019-03-21T16:10:45.943Z,13.00
2019-03-21T16:13:16.140Z,13.00
2019-03-21T16:15:46.304Z,13.00
2019-03-21T16:18:16.608Z,13.00
2019-03-21T16:20:47.072Z,12.90
2019-03-21T16:23:17.373Z,12.90
2019-03-21T16:25:48.712Z,12.90
2019-03-21T16:28:20.161Z,13.00
2019-03-21T16:30:50.746Z,13.00
2019-03-21T16:33:21.195Z,12.90
2019-03-21T16:35:51.468Z,12.90
2019-03-21T16:38:21.804Z,12.80
2019-03-21T16:40:52.056Z,12.80
2019-03-21T16:43:22.314Z,12.70
2019-03-21T16:45:52.594Z,12.70
2019-03-21T16:48:22.983Z,12.60
2019-03-21T16:50:53.352Z,12.60
2019-03-21T16:53:23.604Z,12.60
2019-03-21T16:55:53.768Z,12.50
2019-03-21T16:58:24.047Z,12.50
2019-03-21T17:00:54.219Z,12.40
2019-03-21T17:03:24.417Z,12.40
2019-03-21T17:05:54.673Z,12.30
2019-03-21T17:08:25.071Z,12.30
2019-03-21T17:10:55.261Z,12.20
2019-03-21T17:13:25.461Z,12.20
2019-03-21T17:15:55.605Z,12.10
2019-03-21T17:18:25.888Z,12.10
2019-03-21T17:20:56.570Z,12.00
2019-03-21T17:23:27.023Z,12.00
2019-03-21T17:25:57.179Z,11.90
2019-03-21T17:28:27.368Z,11.90
2019-03-21T17:30:58.976Z,11.80
2019-03-21T17:33:29.354Z,11.70
2019-03-21T17:35:59.640Z,11.60
2019-03-21T17:38:29.908Z,11.60
2019-03-21T17:41:00.112Z,11.50
2019-03-21T17:43:30.286Z,11.40
2019-03-21T17:46:00.637Z,11.30
2019-03-21T17:48:30.804Z,11.20
2019-03-21T17:51:01.005Z,11.20
2019-03-21T17:53:31.164Z,11.20
2019-03-21T17:56:01.444Z,11.10
2019-03-21T17:58:31.719Z,11.10
2019-03-21T18:01:01.924Z,11.10
2019-03-21T18:03:32.121Z,11.00
2019-03-21T18:06:02.326Z,10.90
2019-03-21T18:08:32.515Z,10.90
2019-03-21T18:11:02.903Z,10.90
2019-03-21T18:13:33.190Z,10.80
2019-03-21T18:16:03.583Z,10.70
2019-03-21T18:18:34.378Z,10.70
2019-03-21T18:21:04.923Z,10.70
2019-03-21T18:23:35.168Z,10.60
2019-03-21T18:26:07.078Z,10.50
2019-03-21T18:28:37.250Z,10.40
2019-03-21T18:31:07.542Z,10.40
2019-03-21T18:33:37.818Z,10.30
2019-03-21T18:36:08.003Z,10.20
2019-03-21T18:38:38.287Z,10.20
2019-03-21T18:41:08.567Z,10.10
2019-03-21T18:43:38.727Z,10.00
2019-03-21T18:46:09.125Z,10.00
2019-03-21T18:48:39.291Z,9.90
2019-03-21T18:51:09.578Z,9.80
2019-03-21T18:53:39.732Z,9.80
2019-03-21T18:56:09.916Z,9.70
2019-03-21T18:58:40.085Z,9.60
2019-03-21T19:01:10.290Z,9.50
2019-03-21T19:03:40.440Z,9.50
2019-03-21T19:06:10.632Z,9.40
2019-03-21T19:08:40.795Z,9.30
2019-03-21T19:11:10.973Z,9.30
2019-03-21T19:13:41.638Z,9.20
2019-03-21T19:16:12.034Z,9.10
2019-03-21T19:18:42.198Z,9.00
2019-03-21T19:21:13.079Z,9.00
2019-03-21T19:23:43.436Z,8.90
2019-03-21T19:26:13.911Z,8.80
2019-03-21T19:28:44.191Z,8.70
2019-03-21T19:31:14.343Z,8.60
2019-03-21T19:33:44.710Z,8.60
2019-03-21T19:36:14.988Z,8.50
2019-03-21T19:38:45.132Z,8.50
2019-03-21T19:41:15.329Z,8.40
2019-03-21T19:43:45.598Z,8.30
2019-03-21T19:46:15.916Z,8.20
2019-03-21T19:48:50.467Z,8.10
2019-03-21T19:51:20.704Z,8.20
2019-03-21T19:53:50.861Z,8.10
2019-03-21T19:56:22.178Z,8.10
2019-03-21T19:58:52.387Z,8.00
2019-03-21T20:01:22.569Z,7.90
2019-03-21T20:03:52.822Z,7.80
2019-03-21T20:06:22.991Z,7.80
2019-03-21T20:08:53.543Z,7.80
2019-03-21T20:11:23.866Z,7.80
2019-03-21T20:13:54.236Z,7.70
2019-03-21T20:16:24.603Z,7.70
2019-03-21T20:18:54.769Z,7.70
2019-03-21T20:21:25.051Z,7.70
2019-03-21T20:23:55.208Z,7.60
2019-03-21T20:26:26.892Z,7.60
2019-03-21T20:28:57.058Z,7.60
2019-03-21T20:31:27.249Z,7.60
2019-03-21T20:33:57.483Z,7.50
2019-03-21T20:36:27.779Z,7.50
2019-03-21T20:38:57.928Z,7.50
2019-03-21T20:41:28.412Z,7.50
2019-03-21T20:43:58.678Z,7.50
2019-03-21T20:46:28.866Z,7.40
2019-03-21T20:48:58.096Z,7.40
2019-03-21T20:51:28.373Z,7.40
2019-03-21T20:53:58.627Z,7.40
2019-03-21T20:56:28.818Z,7.30
2019-03-21T20:59:00.385Z,7.20
2019-03-21T21:01:30.561Z,7.20
2019-03-21T21:04:00.927Z,7.20
2019-03-21T21:06:31.472Z,7.20
2019-03-21T21:09:01.938Z,7.20
2019-03-21T21:11:32.326Z,7.20
2019-03-21T21:14:02.576Z,7.10
2019-03-21T21:16:32.762Z,7.10
2019-03-21T21:19:03.220Z,7.10
2019-03-21T21:21:33.406Z,7.10
2019-03-21T21:24:04.026Z,7.10
2019-03-21T21:26:34.209Z,7.10
2019-03-21T21:29:04.764Z,7.00
2019-03-21T21:31:35.048Z,7.00
2019-03-21T21:34:05.459Z,6.90
2019-03-21T21:36:35.641Z,6.90
2019-03-21T21:39:07.483Z,6.80
2019-03-21T21:41:37.663Z,6.70
2019-03-21T21:44:08.136Z,6.70
2019-03-21T21:46:38.433Z,6.60
2019-03-21T21:49:08.803Z,6.60
2019-03-21T21:51:39.085Z,6.50
2019-03-21T21:54:09.250Z,6.50
2019-03-21T21:56:39.619Z,6.50
2019-03-21T21:59:09.800Z,6.50
2019-03-21T22:01:39.972Z,6.50
2019-03-21T22:04:10.409Z,6.40
2019-03-21T22:06:40.688Z,6.30
2019-03-21T22:09:10.946Z,6.30
2019-03-21T22:11:41.255Z,6.30
2019-03-21T22:14:11.523Z,6.20
2019-03-21T22:16:41.699Z,6.30
2019-03-21T22:19:11.860Z,6.30
2019-03-21T22:21:42.066Z,6.40
2019-03-21T22:24:12.322Z,6.30
2019-03-21T22:26:42.496Z,6.30
2019-03-21T22:29:12.681Z,6.20
2019-03-21T22:31:43.052Z,6.20
2019-03-21T22:34:13.347Z,6.20
2019-03-21T22:36:49.368Z,6.10
2019-03-21T22:39:15.706Z,6.10
2019-03-21T22:41:45.866Z,6.00
2019-03-21T22:44:16.042Z,6.00
2019-03-21T22:46:46.302Z,6.00
2019-03-21T22:49:16.581Z,5.90
2019-03-21T22:51:46.848Z,5.90
2019-03-21T22:54:17.142Z,5.80
2019-03-21T22:56:47.307Z,5.80
2019-03-21T22:59:17.595Z,5.80
2019-03-21T23:01:48.709Z,5.80
2019-03-21T23:04:18.888Z,5.80
2019-03-21T23:06:49.254Z,5.80
2019-03-21T23:09:20.946Z,5.70
2019-03-21T23:11:51.118Z,5.60
2019-03-21T23:14:21.294Z,5.60
2019-03-21T23:16:51.549Z,5.60
2019-03-21T23:19:21.734Z,5.60
2019-03-21T23:21:51.897Z,5.50
2019-03-21T23:24:22.280Z,5.50
2019-03-21T23:26:53.333Z,5.50
2019-03-21T23:29:24.292Z,5.60
2019-03-21T23:31:54.488Z,5.50
2019-03-21T23:34:24.863Z,5.50
2019-03-21T23:36:55.130Z,5.40
2019-03-21T23:39:25.423Z,5.40
2019-03-21T23:41:55.682Z,5.30
2019-03-21T23:44:26.611Z,5.40
2019-03-21T23:46:56.962Z,5.50
2019-03-21T23:49:27.140Z,5.40
2019-03-21T23:51:57.304Z,5.40
2019-03-21T23:54:27.680Z,5.30
2019-03-21T23:57:04.598Z,5.20
2019-03-21T23:59:29.858Z,5.20
